New Orleans, Louisiana
Traffic Map
Current Weather Conditions
New Orleans, Louisiana
Overcast
Overcast
54°
Feels Like: 54°
Wind Chill: 54° Ceiling: 1000
Heat Index: 54° Visibility: 10mi
Dew Point: 45° Wind: 8mph
Humidity: 72% Direction: 20° (NNE)
Pressure: 30.14in Gusts: 0mph
Raw Report DataKVSH 201755Z AUTO 02007KT 10SM OVC010 12/07 A3014 RMK AO1 10120 20090 57003
Traffic Incident Summary
Active as of:
Severity:
Category:
InformationThere was an issue retrieving the traffic information for this location. Please try a different location or try again shortly.
Advertisements
Track Severe Weather on mobile